Fenelton, PA (16034)

7:54 PM EDT on October 31, 2014 (GMT -0400)
Windy Hill Station | Change Station
CLOSE
Current Station
Personal Weather Station
Location: Butler, PA
Elevation: 1362 ft
Nearby Weather Stations

Elev 1362 ft 40.90 °N, 79.83 °W | Updated 5 minutes ago

Rain
Rain
40.5 °F
Feels Like 40 °F
N
1.1
Wind Variable Wind from NE

Today
High -- | Low -- °F
--% Chance of Precip.
Yesterday
High -- | Low -- °F
Precip. -- in
7:48 AM 6:16 PM
First Quarter, 60% visible
Pressure 29.90 in
Visibility 8.0 miles
Clouds Few 2300 ft
Mostly Cloudy 2900 ft
Overcast 4200 ft
Windchill 40 °F
Dew Point 39 °F
Humidity 94%
Rainfall 0.07 in
Snow Depth Not available.
UV 0 out of 12
Pollen .10 out of 12
Air Quality Not available.
Flu Activity Not available.
METAR KBTP 312335Z AUTO 08004KT 8SM FEW023 BKN029 OVC042 05/03 A2990 RMK AO1 P0001

More Conditions Fewer Conditions

Pressure 29.90 in
Visibility 8.0 miles
Clouds Few 2300 ft
Mostly Cloudy 2900 ft
Overcast 4200 ft
Windchill 40 °F
Dew Point 39 °F
Humidity 94%
Rainfall 0.07 in
Snow Depth Not available.
UV 0 out of 12
Pollen .10 out of 12
Air Quality Not available.
Flu Activity Not available.
METAR KBTP 312335Z AUTO 08004KT 8SM FEW023 BKN029 OVC042 05/03 A2990 RMK AO1 P0001

More Conditions Fewer Conditions

10-Day Weather Forecast

Almanac

Astronomy

Oct. 31, 2014 Rise Set
Actual Time
Civil Twilight
Nautical Twilight
Astronomical Twilight
Moon
Length of Visible Light
Length of Day
Tomorrow will be .
, % of the Moon is Illuminated

Today's Extremes

State Highs State Lows

Community

WunderPhotos

Upload Photos

1,766,786 photos uploaded!

WunderBlogs® & News

Nearby

Air Quality

  Air Quality AQ Index Pollutant
Not available.

Snow Depth

Station Depth Elevation

Earthquake Activity

City Distance Mag. Time & Date
Minimum magnitude displayed is 2.5.

Coastal Water Temperatures

Place Temperature

Nearby Weather Stations